Terminal Aerodrome Forecast
Issued by NWS

Home | Current Version | Previous Version | Text Only | Print | Product List | Glossary On
Versions: 1 2 3 4 5 6 7 8 9 10 11 12 13 14 15 16 17 18 19 20 21 22 23 24 25 26 27 28 29 30 31 32 33 34 35 36
000
FTUS44 KHGX 272341
TAFLBX
TAF
KLBX 272341Z 2800/2824 15010KT P6SM BKN017 BKN030 OVC050
     FM280600 16009KT P6SM OVC015
      TEMPO 2809/2813 OVC009
     FM281700 18015KT P6SM SCT020
      TEMPO 2819/2823 BKN024=

USA.gov is the U.S. government's official web portal to all federal, state and local government web resources and services.